sensor_id;sensor_type;location;lat;lon;timestamp;temperature;humidity
2062;DHT22;11070;51.336;12.340;2023-05-07T00:01:46;9.90;1.00
2062;DHT22;11070;51.336;12.340;2023-05-07T00:04:11;9.90;1.00
2062;DHT22;11070;51.336;12.340;2023-05-07T00:06:38;9.90;1.00
2062;DHT22;11070;51.336;12.340;2023-05-07T00:09:05;9.90;1.00
2062;DHT22;11070;51.336;12.340;2023-05-07T00:11:31;9.90;1.00
2062;DHT22;11070;51.336;12.340;2023-05-07T00:13:57;9.90;1.00
2062;DHT22;11070;51.336;12.340;2023-05-07T00:16:23;9.80;1.00
2062;DHT22;11070;51.336;12.340;2023-05-07T00:18:49;9.70;1.00
2062;DHT22;11070;51.336;12.340;2023-05-07T00:21:14;9.60;1.00
2062;DHT22;11070;51.336;12.340;2023-05-07T00:23:40;9.60;1.00
2062;DHT22;11070;51.336;12.340;2023-05-07T00:26:06;9.60;1.00
2062;DHT22;11070;51.336;12.340;2023-05-07T00:28:31;9.60;1.00
2062;DHT22;11070;51.336;12.340;2023-05-07T00:30:57;9.70;1.00
2062;DHT22;11070;51.336;12.340;2023-05-07T00:33:23;9.70;1.00
2062;DHT22;11070;51.336;12.340;2023-05-07T00:35:49;9.80;1.00
2062;DHT22;11070;51.336;12.340;2023-05-07T00:38:14;9.80;1.00
2062;DHT22;11070;51.336;12.340;2023-05-07T00:40:40;9.70;1.00
2062;DHT22;11070;51.336;12.340;2023-05-07T00:43:06;9.70;1.00
2062;DHT22;11070;51.336;12.340;2023-05-07T00:45:33;9.70;1.00
2062;DHT22;11070;51.336;12.340;2023-05-07T00:48:02;9.70;1.00
2062;DHT22;11070;51.336;12.340;2023-05-07T00:50:29;9.70;1.00
2062;DHT22;11070;51.336;12.340;2023-05-07T00:52:55;9.70;1.00
2062;DHT22;11070;51.336;12.340;2023-05-07T00:55:22;9.70;1.00
2062;DHT22;11070;51.336;12.340;2023-05-07T00:57:48;9.60;1.00
2062;DHT22;11070;51.336;12.340;2023-05-07T01:00:14;9.70;1.00
2062;DHT22;11070;51.336;12.340;2023-05-07T01:02:41;9.70;1.00
2062;DHT22;11070;51.336;12.340;2023-05-07T01:05:17;9.60;1.00
2062;DHT22;11070;51.336;12.340;2023-05-07T01:07:44;9.60;1.00
2062;DHT22;11070;51.336;12.340;2023-05-07T01:10:10;9.60;1.00
2062;DHT22;11070;51.336;12.340;2023-05-07T01:12:37;9.70;1.00
2062;DHT22;11070;51.336;12.340;2023-05-07T01:15:05;9.70;1.00
2062;DHT22;11070;51.336;12.340;2023-05-07T01:17:41;9.80;1.00
2062;DHT22;11070;51.336;12.340;2023-05-07T01:20:08;9.80;1.00
2062;DHT22;11070;51.336;12.340;2023-05-07T01:22:39;9.80;1.00
2062;DHT22;11070;51.336;12.340;2023-05-07T01:25:06;9.80;1.00
2062;DHT22;11070;51.336;12.340;2023-05-07T01:27:36;9.70;1.00
2062;DHT22;11070;51.336;12.340;2023-05-07T01:30:05;9.70;1.00
2062;DHT22;11070;51.336;12.340;2023-05-07T01:32:42;9.60;1.00
2062;DHT22;11070;51.336;12.340;2023-05-07T01:35:11;9.60;1.00
2062;DHT22;11070;51.336;12.340;2023-05-07T01:37:38;9.60;1.00
2062;DHT22;11070;51.336;12.340;2023-05-07T01:40:05;9.60;1.00
2062;DHT22;11070;51.336;12.340;2023-05-07T01:42:32;9.60;1.00
2062;DHT22;11070;51.336;12.340;2023-05-07T01:44:58;9.60;1.00
2062;DHT22;11070;51.336;12.340;2023-05-07T01:47:25;9.60;1.00
2062;DHT22;11070;51.336;12.340;2023-05-07T01:49:51;9.60;1.00
2062;DHT22;11070;51.336;12.340;2023-05-07T01:52:17;9.60;1.00
2062;DHT22;11070;51.336;12.340;2023-05-07T01:54:43;9.70;1.00
2062;DHT22;11070;51.336;12.340;2023-05-07T01:57:08;9.60;1.00
2062;DHT22;11070;51.336;12.340;2023-05-07T01:59:34;9.60;1.00
2062;DHT22;11070;51.336;12.340;2023-05-07T02:02:00;9.60;1.00
2062;DHT22;11070;51.336;12.340;2023-05-07T02:04:26;9.70;1.00
2062;DHT22;11070;51.336;12.340;2023-05-07T02:06:51;9.60;1.00
2062;DHT22;11070;51.336;12.340;2023-05-07T02:09:18;9.60;1.00
2062;DHT22;11070;51.336;12.340;2023-05-07T02:11:44;9.60;1.00
2062;DHT22;11070;51.336;12.340;2023-05-07T02:14:10;9.60;1.00
2062;DHT22;11070;51.336;12.340;2023-05-07T02:16:36;9.60;1.00
2062;DHT22;11070;51.336;12.340;2023-05-07T02:19:01;9.60;1.00
2062;DHT22;11070;51.336;12.340;2023-05-07T02:21:27;9.50;1.00
2062;DHT22;11070;51.336;12.340;2023-05-07T02:23:53;9.50;1.00
2062;DHT22;11070;51.336;12.340;2023-05-07T02:26:19;9.50;1.00
2062;DHT22;11070;51.336;12.340;2023-05-07T02:28:45;9.50;1.00
2062;DHT22;11070;51.336;12.340;2023-05-07T02:31:11;9.50;1.00
2062;DHT22;11070;51.336;12.340;2023-05-07T02:33:36;9.40;1.00
2062;DHT22;11070;51.336;12.340;2023-05-07T02:36:09;9.40;1.00
2062;DHT22;11070;51.336;12.340;2023-05-07T02:38:35;9.50;1.00
2062;DHT22;11070;51.336;12.340;2023-05-07T02:41:00;9.50;1.00
2062;DHT22;11070;51.336;12.340;2023-05-07T02:43:26;9.50;1.00
2062;DHT22;11070;51.336;12.340;2023-05-07T02:46:08;9.50;1.00
2062;DHT22;11070;51.336;12.340;2023-05-07T02:48:34;9.50;1.00
2062;DHT22;11070;51.336;12.340;2023-05-07T02:51:00;9.50;1.00
2062;DHT22;11070;51.336;12.340;2023-05-07T02:53:27;9.50;1.00
2062;DHT22;11070;51.336;12.340;2023-05-07T02:55:57;9.50;1.00
2062;DHT22;11070;51.336;12.340;2023-05-07T02:58:23;9.50;1.00
2062;DHT22;11070;51.336;12.340;2023-05-07T03:00:49;9.50;1.00
2062;DHT22;11070;51.336;12.340;2023-05-07T03:03:15;9.40;1.00
2062;DHT22;11070;51.336;12.340;2023-05-07T03:05:41;9.40;1.00
2062;DHT22;11070;51.336;12.340;2023-05-07T03:08:07;9.40;1.00
2062;DHT22;11070;51.336;12.340;2023-05-07T03:10:33;9.40;1.00
2062;DHT22;11070;51.336;12.340;2023-05-07T03:12:59;9.40;1.00
2062;DHT22;11070;51.336;12.340;2023-05-07T03:15:25;9.40;1.00
2062;DHT22;11070;51.336;12.340;2023-05-07T03:17:50;9.40;1.00
2062;DHT22;11070;51.336;12.340;2023-05-07T03:20:16;9.40;1.00
2062;DHT22;11070;51.336;12.340;2023-05-07T03:22:42;9.40;1.00
2062;DHT22;11070;51.336;12.340;2023-05-07T03:25:08;9.50;1.00
2062;DHT22;11070;51.336;12.340;2023-05-07T03:27:34;9.40;1.00
2062;DHT22;11070;51.336;12.340;2023-05-07T03:30:00;9.50;1.00
2062;DHT22;11070;51.336;12.340;2023-05-07T03:32:26;9.40;1.00
2062;DHT22;11070;51.336;12.340;2023-05-07T03:34:52;9.50;1.00
2062;DHT22;11070;51.336;12.340;2023-05-07T03:37:18;9.40;1.00
2062;DHT22;11070;51.336;12.340;2023-05-07T03:39:44;9.40;1.00
2062;DHT22;11070;51.336;12.340;2023-05-07T03:42:09;9.40;1.00
2062;DHT22;11070;51.336;12.340;2023-05-07T03:44:35;9.40;1.00
2062;DHT22;11070;51.336;12.340;2023-05-07T03:47:02;9.40;1.00
2062;DHT22;11070;51.336;12.340;2023-05-07T03:49:28;9.40;1.00
2062;DHT22;11070;51.336;12.340;2023-05-07T03:51:53;9.40;1.00
2062;DHT22;11070;51.336;12.340;2023-05-07T03:54:19;9.40;1.00
2062;DHT22;11070;51.336;12.340;2023-05-07T03:56:45;9.40;1.00
2062;DHT22;11070;51.336;12.340;2023-05-07T03:59:11;9.50;1.00
2062;DHT22;11070;51.336;12.340;2023-05-07T04:01:37;9.50;1.00
2062;DHT22;11070;51.336;12.340;2023-05-07T04:04:03;9.60;1.00
2062;DHT22;11070;51.336;12.340;2023-05-07T04:06:29;9.60;1.00
2062;DHT22;11070;51.336;12.340;2023-05-07T04:08:55;9.60;1.00
2062;DHT22;11070;51.336;12.340;2023-05-07T04:11:21;9.70;1.00
2062;DHT22;11070;51.336;12.340;2023-05-07T04:13:47;9.70;1.00
2062;DHT22;11070;51.336;12.340;2023-05-07T04:16:13;9.60;1.00
2062;DHT22;11070;51.336;12.340;2023-05-07T04:18:38;9.60;1.00
2062;DHT22;11070;51.336;12.340;2023-05-07T04:21:05;9.60;1.00
2062;DHT22;11070;51.336;12.340;2023-05-07T04:23:31;9.60;1.00
2062;DHT22;11070;51.336;12.340;2023-05-07T04:25:56;9.60;1.00
2062;DHT22;11070;51.336;12.340;2023-05-07T04:28:23;9.60;1.00
2062;DHT22;11070;51.336;12.340;2023-05-07T04:30:49;9.60;1.00
2062;DHT22;11070;51.336;12.340;2023-05-07T04:33:15;9.70;1.00
2062;DHT22;11070;51.336;12.340;2023-05-07T04:35:43;9.70;1.00
2062;DHT22;11070;51.336;12.340;2023-05-07T04:38:09;9.70;1.00
2062;DHT22;11070;51.336;12.340;2023-05-07T04:40:36;9.70;1.00
2062;DHT22;11070;51.336;12.340;2023-05-07T04:43:01;9.70;1.00
2062;DHT22;11070;51.336;12.340;2023-05-07T04:45:27;9.70;1.00
2062;DHT22;11070;51.336;12.340;2023-05-07T04:47:53;9.60;1.00
2062;DHT22;11070;51.336;12.340;2023-05-07T04:50:18;9.60;1.00
2062;DHT22;11070;51.336;12.340;2023-05-07T04:52:45;9.70;1.00
2062;DHT22;11070;51.336;12.340;2023-05-07T04:55:11;9.80;1.00
2062;DHT22;11070;51.336;12.340;2023-05-07T04:57:36;9.80;1.00
2062;DHT22;11070;51.336;12.340;2023-05-07T05:00:05;9.70;1.00
2062;DHT22;11070;51.336;12.340;2023-05-07T05:02:33;9.70;1.00
2062;DHT22;11070;51.336;12.340;2023-05-07T05:04:59;9.70;1.00
2062;DHT22;11070;51.336;12.340;2023-05-07T05:07:25;9.70;1.00
2062;DHT22;11070;51.336;12.340;2023-05-07T05:09:50;9.70;1.00
2062;DHT22;11070;51.336;12.340;2023-05-07T05:12:16;9.70;1.00
2062;DHT22;11070;51.336;12.340;2023-05-07T05:14:42;9.80;1.00
2062;DHT22;11070;51.336;12.340;2023-05-07T05:17:08;9.70;1.00
2062;DHT22;11070;51.336;12.340;2023-05-07T05:19:33;9.70;1.00
2062;DHT22;11070;51.336;12.340;2023-05-07T05:21:59;9.70;1.00
2062;DHT22;11070;51.336;12.340;2023-05-07T05:24:26;9.80;1.00
2062;DHT22;11070;51.336;12.340;2023-05-07T05:26:53;9.70;1.00
2062;DHT22;11070;51.336;12.340;2023-05-07T05:29:19;9.80;1.00
2062;DHT22;11070;51.336;12.340;2023-05-07T05:31:44;9.80;28.00
2062;DHT22;11070;51.336;12.340;2023-05-07T05:34:10;9.80;99.90
2062;DHT22;11070;51.336;12.340;2023-05-07T05:36:36;9.80;99.90
2062;DHT22;11070;51.336;12.340;2023-05-07T05:39:01;9.80;99.90
2062;DHT22;11070;51.336;12.340;2023-05-07T05:41:27;9.80;99.90
2062;DHT22;11070;51.336;12.340;2023-05-07T05:43:53;9.80;99.90
2062;DHT22;11070;51.336;12.340;2023-05-07T05:46:19;9.80;99.90
2062;DHT22;11070;51.336;12.340;2023-05-07T05:48:44;9.90;99.90
2062;DHT22;11070;51.336;12.340;2023-05-07T05:51:10;10.00;99.90
2062;DHT22;11070;51.336;12.340;2023-05-07T05:53:35;10.00;99.90
2062;DHT22;11070;51.336;12.340;2023-05-07T05:56:02;10.10;99.90
2062;DHT22;11070;51.336;12.340;2023-05-07T05:58:28;10.00;99.90
2062;DHT22;11070;51.336;12.340;2023-05-07T06:00:53;10.10;99.90
2062;DHT22;11070;51.336;12.340;2023-05-07T06:03:20;10.00;99.90
2062;DHT22;11070;51.336;12.340;2023-05-07T06:05:45;10.10;99.90
2062;DHT22;11070;51.336;12.340;2023-05-07T06:08:11;10.10;99.90
2062;DHT22;11070;51.336;12.340;2023-05-07T06:10:37;10.00;99.90
2062;DHT22;11070;51.336;12.340;2023-05-07T06:13:03;10.00;99.90
2062;DHT22;11070;51.336;12.340;2023-05-07T06:15:29;10.00;99.90
2062;DHT22;11070;51.336;12.340;2023-05-07T06:17:54;10.10;99.90
2062;DHT22;11070;51.336;12.340;2023-05-07T06:20:22;10.20;99.90
2062;DHT22;11070;51.336;12.340;2023-05-07T06:22:48;10.20;99.90
2062;DHT22;11070;51.336;12.340;2023-05-07T06:25:14;10.20;99.90
2062;DHT22;11070;51.336;12.340;2023-05-07T06:27:40;10.30;99.90
2062;DHT22;11070;51.336;12.340;2023-05-07T06:30:07;10.30;99.90
2062;DHT22;11070;51.336;12.340;2023-05-07T06:32:33;10.30;99.90
2062;DHT22;11070;51.336;12.340;2023-05-07T06:34:59;10.30;99.90
2062;DHT22;11070;51.336;12.340;2023-05-07T06:37:25;10.30;99.90
2062;DHT22;11070;51.336;12.340;2023-05-07T06:39:51;10.30;99.90
2062;DHT22;11070;51.336;12.340;2023-05-07T06:42:17;10.40;99.90
2062;DHT22;11070;51.336;12.340;2023-05-07T06:44:42;10.50;99.90
2062;DHT22;11070;51.336;12.340;2023-05-07T06:47:08;10.50;99.90
2062;DHT22;11070;51.336;12.340;2023-05-07T06:49:34;10.50;99.90
2062;DHT22;11070;51.336;12.340;2023-05-07T06:51:59;10.60;99.90
2062;DHT22;11070;51.336;12.340;2023-05-07T06:54:25;10.70;99.90
2062;DHT22;11070;51.336;12.340;2023-05-07T06:56:51;10.60;99.90
2062;DHT22;11070;51.336;12.340;2023-05-07T06:59:16;10.50;99.90
2062;DHT22;11070;51.336;12.340;2023-05-07T07:01:42;10.40;99.90
2062;DHT22;11070;51.336;12.340;2023-05-07T07:04:08;10.40;99.90
2062;DHT22;11070;51.336;12.340;2023-05-07T07:06:33;10.40;99.90
2062;DHT22;11070;51.336;12.340;2023-05-07T07:08:59;10.50;99.90
2062;DHT22;11070;51.336;12.340;2023-05-07T07:11:25;10.50;99.90
2062;DHT22;11070;51.336;12.340;2023-05-07T07:13:51;10.50;99.90
2062;DHT22;11070;51.336;12.340;2023-05-07T07:16:19;10.60;99.90
2062;DHT22;11070;51.336;12.340;2023-05-07T07:18:44;10.70;99.90
2062;DHT22;11070;51.336;12.340;2023-05-07T07:21:10;10.70;99.90
2062;DHT22;11070;51.336;12.340;2023-05-07T07:23:36;10.60;99.90
2062;DHT22;11070;51.336;12.340;2023-05-07T07:26:01;10.70;99.90
2062;DHT22;11070;51.336;12.340;2023-05-07T07:28:27;10.70;99.90
2062;DHT22;11070;51.336;12.340;2023-05-07T07:30:53;10.90;99.90
2062;DHT22;11070;51.336;12.340;2023-05-07T07:33:18;11.00;99.90
2062;DHT22;11070;51.336;12.340;2023-05-07T07:35:44;11.10;99.90
2062;DHT22;11070;51.336;12.340;2023-05-07T07:38:10;11.30;99.90
2062;DHT22;11070;51.336;12.340;2023-05-07T07:40:35;11.30;99.90
2062;DHT22;11070;51.336;12.340;2023-05-07T07:43:01;11.30;99.90
2062;DHT22;11070;51.336;12.340;2023-05-07T07:45:27;11.30;99.90
2062;DHT22;11070;51.336;12.340;2023-05-07T07:47:53;11.30;99.90
2062;DHT22;11070;51.336;12.340;2023-05-07T07:50:19;11.20;99.90
2062;DHT22;11070;51.336;12.340;2023-05-07T07:52:44;11.10;99.90
2062;DHT22;11070;51.336;12.340;2023-05-07T07:55:10;11.00;99.90
2062;DHT22;11070;51.336;12.340;2023-05-07T07:57:36;11.00;99.90
2062;DHT22;11070;51.336;12.340;2023-05-07T08:00:02;10.90;99.90
2062;DHT22;11070;51.336;12.340;2023-05-07T08:02:28;11.00;99.90
2062;DHT22;11070;51.336;12.340;2023-05-07T08:04:54;11.00;99.90
2062;DHT22;11070;51.336;12.340;2023-05-07T08:07:19;11.00;99.90
2062;DHT22;11070;51.336;12.340;2023-05-07T08:09:48;11.10;99.90
2062;DHT22;11070;51.336;12.340;2023-05-07T08:12:14;11.10;99.90
2062;DHT22;11070;51.336;12.340;2023-05-07T08:14:40;10.90;99.90
2062;DHT22;11070;51.336;12.340;2023-05-07T08:17:05;10.80;99.90
2062;DHT22;11070;51.336;12.340;2023-05-07T08:19:32;10.90;99.90
2062;DHT22;11070;51.336;12.340;2023-05-07T08:21:57;10.90;99.90
2062;DHT22;11070;51.336;12.340;2023-05-07T08:24:23;11.00;1.00
2062;DHT22;11070;51.336;12.340;2023-05-07T08:26:48;11.00;99.90
2062;DHT22;11070;51.336;12.340;2023-05-07T08:29:15;11.10;99.90
2062;DHT22;11070;51.336;12.340;2023-05-07T08:31:41;11.00;32.00
2062;DHT22;11070;51.336;12.340;2023-05-07T08:34:06;11.00;99.90
2062;DHT22;11070;51.336;12.340;2023-05-07T08:36:32;11.20;99.90
2062;DHT22;11070;51.336;12.340;2023-05-07T08:38:59;11.20;1.00
2062;DHT22;11070;51.336;12.340;2023-05-07T08:41:25;11.20;1.00
2062;DHT22;11070;51.336;12.340;2023-05-07T08:43:51;11.30;1.00
2062;DHT22;11070;51.336;12.340;2023-05-07T08:46:21;11.20;1.00
2062;DHT22;11070;51.336;12.340;2023-05-07T08:48:51;11.20;1.00
2062;DHT22;11070;51.336;12.340;2023-05-07T08:51:18;11.10;1.00
2062;DHT22;11070;51.336;12.340;2023-05-07T08:53:45;11.10;1.00
2062;DHT22;11070;51.336;12.340;2023-05-07T08:56:12;11.20;31.00
2062;DHT22;11070;51.336;12.340;2023-05-07T08:58:37;11.20;1.00
2062;DHT22;11070;51.336;12.340;2023-05-07T09:01:16;11.20;1.00
2062;DHT22;11070;51.336;12.340;2023-05-07T09:03:46;11.30;1.00
2062;DHT22;11070;51.336;12.340;2023-05-07T09:06:12;11.40;1.00
2062;DHT22;11070;51.336;12.340;2023-05-07T09:08:38;11.50;1.00
2062;DHT22;11070;51.336;12.340;2023-05-07T09:11:03;11.60;1.00
2062;DHT22;11070;51.336;12.340;2023-05-07T09:13:29;11.50;1.00
2062;DHT22;11070;51.336;12.340;2023-05-07T09:15:55;11.40;1.00
2062;DHT22;11070;51.336;12.340;2023-05-07T09:18:24;11.50;1.00
2062;DHT22;11070;51.336;12.340;2023-05-07T09:20:50;11.50;1.00
2062;DHT22;11070;51.336;12.340;2023-05-07T09:23:16;11.50;1.00
2062;DHT22;11070;51.336;12.340;2023-05-07T09:25:42;11.50;1.00
2062;DHT22;11070;51.336;12.340;2023-05-07T09:28:08;11.50;1.00
2062;DHT22;11070;51.336;12.340;2023-05-07T09:30:35;11.40;1.00
2062;DHT22;11070;51.336;12.340;2023-05-07T09:33:02;11.30;1.00
2062;DHT22;11070;51.336;12.340;2023-05-07T09:35:29;11.30;1.00
2062;DHT22;11070;51.336;12.340;2023-05-07T09:38:00;11.40;1.00
2062;DHT22;11070;51.336;12.340;2023-05-07T09:40:30;11.60;1.00
2062;DHT22;11070;51.336;12.340;2023-05-07T09:42:56;11.70;1.00
2062;DHT22;11070;51.336;12.340;2023-05-07T09:45:26;11.70;99.90
2062;DHT22;11070;51.336;12.340;2023-05-07T09:47:54;11.60;1.00
2062;DHT22;11070;51.336;12.340;2023-05-07T09:50:29;11.70;99.90
2062;DHT22;11070;51.336;12.340;2023-05-07T09:52:56;11.60;1.00
2062;DHT22;11070;51.336;12.340;2023-05-07T09:55:23;11.50;1.00
2062;DHT22;11070;51.336;12.340;2023-05-07T09:57:53;11.60;1.00
2062;DHT22;11070;51.336;12.340;2023-05-07T10:00:20;11.50;1.00
2062;DHT22;11070;51.336;12.340;2023-05-07T10:02:51;11.40;1.00
2062;DHT22;11070;51.336;12.340;2023-05-07T10:05:21;11.40;1.00
2062;DHT22;11070;51.336;12.340;2023-05-07T10:07:48;11.50;1.00
2062;DHT22;11070;51.336;12.340;2023-05-07T10:10:14;11.50;1.00
2062;DHT22;11070;51.336;12.340;2023-05-07T10:12:41;11.60;1.00
2062;DHT22;11070;51.336;12.340;2023-05-07T10:15:10;11.70;1.00
2062;DHT22;11070;51.336;12.340;2023-05-07T10:17:40;11.90;99.90
2062;DHT22;11070;51.336;12.340;2023-05-07T10:20:07;11.80;99.90
2062;DHT22;11070;51.336;12.340;2023-05-07T10:22:41;11.90;99.90
2062;DHT22;11070;51.336;12.340;2023-05-07T10:25:24;12.00;99.90
2062;DHT22;11070;51.336;12.340;2023-05-07T10:27:52;12.00;99.90
2062;DHT22;11070;51.336;12.340;2023-05-07T10:30:49;11.90;99.90
2062;DHT22;11070;51.336;12.340;2023-05-07T10:33:22;11.80;1.00
2062;DHT22;11070;51.336;12.340;2023-05-07T10:35:49;11.90;99.90
2062;DHT22;11070;51.336;12.340;2023-05-07T10:38:15;11.80;99.90
2062;DHT22;11070;51.336;12.340;2023-05-07T10:40:41;11.80;1.00
2062;DHT22;11070;51.336;12.340;2023-05-07T10:43:06;11.80;1.00
2062;DHT22;11070;51.336;12.340;2023-05-07T10:45:32;11.90;1.00
2062;DHT22;11070;51.336;12.340;2023-05-07T10:48:11;11.80;99.90
2062;DHT22;11070;51.336;12.340;2023-05-07T10:50:38;11.90;99.90
2062;DHT22;11070;51.336;12.340;2023-05-07T10:53:21;11.80;99.90
2062;DHT22;11070;51.336;12.340;2023-05-07T10:55:51;11.70;99.90
2062;DHT22;11070;51.336;12.340;2023-05-07T10:58:27;11.60;99.90
2062;DHT22;11070;51.336;12.340;2023-05-07T11:01:03;11.80;99.90
2062;DHT22;11070;51.336;12.340;2023-05-07T11:03:29;11.90;99.90
2062;DHT22;11070;51.336;12.340;2023-05-07T11:06:16;12.10;99.90
2062;DHT22;11070;51.336;12.340;2023-05-07T11:08:58;12.10;99.90
2062;DHT22;11070;51.336;12.340;2023-05-07T11:14:14;12.00;1.00
2062;DHT22;11070;51.336;12.340;2023-05-07T11:16:41;12.20;99.90
2062;DHT22;11070;51.336;12.340;2023-05-07T11:19:07;12.20;99.90
2062;DHT22;11070;51.336;12.340;2023-05-07T11:21:37;12.20;99.90
2062;DHT22;11070;51.336;12.340;2023-05-07T11:24:04;12.40;99.90
2062;DHT22;11070;51.336;12.340;2023-05-07T11:26:41;12.70;99.90
2062;DHT22;11070;51.336;12.340;2023-05-07T11:29:19;13.00;1.00
2062;DHT22;11070;51.336;12.340;2023-05-07T11:31:53;13.00;1.00
2062;DHT22;11070;51.336;12.340;2023-05-07T11:34:24;13.00;1.00
2062;DHT22;11070;51.336;12.340;2023-05-07T11:36:50;13.10;1.00
2062;DHT22;11070;51.336;12.340;2023-05-07T11:41:50;13.10;1.00
2062;DHT22;11070;51.336;12.340;2023-05-07T11:44:16;12.90;1.00
2062;DHT22;11070;51.336;12.340;2023-05-07T11:46:43;12.90;1.00
2062;DHT22;11070;51.336;12.340;2023-05-07T11:49:09;12.80;1.00
2062;DHT22;11070;51.336;12.340;2023-05-07T11:51:35;12.80;1.00
2062;DHT22;11070;51.336;12.340;2023-05-07T11:54:03;13.00;1.00
2062;DHT22;11070;51.336;12.340;2023-05-07T11:56:33;13.00;1.00
2062;DHT22;11070;51.336;12.340;2023-05-07T11:58:59;13.10;1.00
2062;DHT22;11070;51.336;12.340;2023-05-07T12:01:25;13.10;1.00
2062;DHT22;11070;51.336;12.340;2023-05-07T12:03:50;13.10;1.00
2062;DHT22;11070;51.336;12.340;2023-05-07T12:06:18;12.80;1.00
2062;DHT22;11070;51.336;12.340;2023-05-07T12:08:44;12.70;1.00
2062;DHT22;11070;51.336;12.340;2023-05-07T12:11:24;12.60;1.00
2062;DHT22;11070;51.336;12.340;2023-05-07T12:13:50;12.80;1.00
2062;DHT22;11070;51.336;12.340;2023-05-07T12:16:17;12.90;1.00
2062;DHT22;11070;51.336;12.340;2023-05-07T12:18:44;13.10;1.00
2062;DHT22;11070;51.336;12.340;2023-05-07T12:21:10;13.10;1.00
2062;DHT22;11070;51.336;12.340;2023-05-07T12:23:37;13.10;1.00
2062;DHT22;11070;51.336;12.340;2023-05-07T12:26:03;13.00;1.00
2062;DHT22;11070;51.336;12.340;2023-05-07T12:28:29;13.00;1.00
2062;DHT22;11070;51.336;12.340;2023-05-07T12:30:57;13.20;1.00
2062;DHT22;11070;51.336;12.340;2023-05-07T12:33:26;13.40;1.00
2062;DHT22;11070;51.336;12.340;2023-05-07T12:35:55;13.60;1.00
2062;DHT22;11070;51.336;12.340;2023-05-07T12:38:21;13.90;1.00
2062;DHT22;11070;51.336;12.340;2023-05-07T12:40:48;14.10;1.00
2062;DHT22;11070;51.336;12.340;2023-05-07T12:43:29;14.20;1.00
2062;DHT22;11070;51.336;12.340;2023-05-07T12:45:57;14.50;1.00
2062;DHT22;11070;51.336;12.340;2023-05-07T12:48:25;14.50;1.00
2062;DHT22;11070;51.336;12.340;2023-05-07T12:50:56;14.30;1.00
2062;DHT22;11070;51.336;12.340;2023-05-07T12:53:25;14.00;1.00
2062;DHT22;11070;51.336;12.340;2023-05-07T12:55:53;13.90;1.00
2062;DHT22;11070;51.336;12.340;2023-05-07T12:58:30;14.00;1.00
2062;DHT22;11070;51.336;12.340;2023-05-07T13:00:58;14.40;1.00
2062;DHT22;11070;51.336;12.340;2023-05-07T13:03:28;14.80;1.00
2062;DHT22;11070;51.336;12.340;2023-05-07T13:05:59;14.70;99.90
2062;DHT22;11070;51.336;12.340;2023-05-07T13:08:30;14.60;99.90
2062;DHT22;11070;51.336;12.340;2023-05-07T13:10:58;14.30;1.00
2062;DHT22;11070;51.336;12.340;2023-05-07T13:13:24;14.00;1.00
2062;DHT22;11070;51.336;12.340;2023-05-07T13:15:50;13.90;1.00
2062;DHT22;11070;51.336;12.340;2023-05-07T13:18:16;13.90;1.00
2062;DHT22;11070;51.336;12.340;2023-05-07T13:20:42;14.40;99.90
2062;DHT22;11070;51.336;12.340;2023-05-07T13:23:08;14.90;99.90
2062;DHT22;11070;51.336;12.340;2023-05-07T13:25:33;15.10;99.90
2062;DHT22;11070;51.336;12.340;2023-05-07T13:27:59;15.20;99.90
2062;DHT22;11070;51.336;12.340;2023-05-07T13:30:25;15.30;99.90
2062;DHT22;11070;51.336;12.340;2023-05-07T13:32:53;15.50;99.90
2062;DHT22;11070;51.336;12.340;2023-05-07T13:35:20;15.60;99.90
2062;DHT22;11070;51.336;12.340;2023-05-07T13:37:46;15.30;99.90
2062;DHT22;11070;51.336;12.340;2023-05-07T13:40:13;15.30;99.90
2062;DHT22;11070;51.336;12.340;2023-05-07T13:42:39;15.30;99.90
2062;DHT22;11070;51.336;12.340;2023-05-07T13:45:05;15.30;99.90
2062;DHT22;11070;51.336;12.340;2023-05-07T13:47:31;15.40;99.90
2062;DHT22;11070;51.336;12.340;2023-05-07T13:49:57;15.40;99.90
2062;DHT22;11070;51.336;12.340;2023-05-07T13:52:22;15.30;99.90
2062;DHT22;11070;51.336;12.340;2023-05-07T13:54:48;15.00;99.90
2062;DHT22;11070;51.336;12.340;2023-05-07T13:57:13;14.80;99.90
2062;DHT22;11070;51.336;12.340;2023-05-07T13:59:40;14.80;99.90
2062;DHT22;11070;51.336;12.340;2023-05-07T14:02:06;14.70;99.90
2062;DHT22;11070;51.336;12.340;2023-05-07T14:04:31;14.60;99.90
2062;DHT22;11070;51.336;12.340;2023-05-07T14:06:57;14.70;1.00
2062;DHT22;11070;51.336;12.340;2023-05-07T14:09:23;14.80;99.90
2062;DHT22;11070;51.336;12.340;2023-05-07T14:11:48;14.70;99.90
2062;DHT22;11070;51.336;12.340;2023-05-07T14:14:17;14.40;1.00
2062;DHT22;11070;51.336;12.340;2023-05-07T14:16:43;14.30;1.00
2062;DHT22;11070;51.336;12.340;2023-05-07T14:19:08;14.30;1.00
2062;DHT22;11070;51.336;12.340;2023-05-07T14:21:34;14.30;1.00
2062;DHT22;11070;51.336;12.340;2023-05-07T14:24:00;14.70;1.00
2062;DHT22;11070;51.336;12.340;2023-05-07T14:26:26;14.80;99.90
2062;DHT22;11070;51.336;12.340;2023-05-07T14:28:52;14.80;1.00
2062;DHT22;11070;51.336;12.340;2023-05-07T14:31:20;15.00;99.90
2062;DHT22;11070;51.336;12.340;2023-05-07T14:33:46;15.10;99.90
2062;DHT22;11070;51.336;12.340;2023-05-07T14:36:12;15.20;99.90
2062;DHT22;11070;51.336;12.340;2023-05-07T14:38:37;14.80;99.90
2062;DHT22;11070;51.336;12.340;2023-05-07T14:41:03;14.50;1.00
2062;DHT22;11070;51.336;12.340;2023-05-07T14:43:29;14.70;99.90
2062;DHT22;11070;51.336;12.340;2023-05-07T14:45:55;14.80;99.90
2062;DHT22;11070;51.336;12.340;2023-05-07T14:48:20;14.70;99.90
2062;DHT22;11070;51.336;12.340;2023-05-07T14:50:49;14.80;99.90
2062;DHT22;11070;51.336;12.340;2023-05-07T14:53:15;15.00;99.90
2062;DHT22;11070;51.336;12.340;2023-05-07T14:55:41;15.10;99.90
2062;DHT22;11070;51.336;12.340;2023-05-07T14:58:07;15.10;99.90
2062;DHT22;11070;51.336;12.340;2023-05-07T15:00:33;15.30;99.90
2062;DHT22;11070;51.336;12.340;2023-05-07T15:03:05;15.40;99.90
2062;DHT22;11070;51.336;12.340;2023-05-07T15:05:32;15.60;99.90
2062;DHT22;11070;51.336;12.340;2023-05-07T15:07:58;15.50;99.90
2062;DHT22;11070;51.336;12.340;2023-05-07T15:10:23;15.20;99.90
2062;DHT22;11070;51.336;12.340;2023-05-07T15:12:49;14.90;99.90
2062;DHT22;11070;51.336;12.340;2023-05-07T15:15:15;14.80;99.90
2062;DHT22;11070;51.336;12.340;2023-05-07T15:17:40;14.80;99.90
2062;DHT22;11070;51.336;12.340;2023-05-07T15:20:07;14.80;99.90
2062;DHT22;11070;51.336;12.340;2023-05-07T15:22:33;14.80;99.90
2062;DHT22;11070;51.336;12.340;2023-05-07T15:24:59;14.90;99.90
2062;DHT22;11070;51.336;12.340;2023-05-07T15:27:25;14.90;99.90
2062;DHT22;11070;51.336;12.340;2023-05-07T15:29:51;14.90;99.90
2062;DHT22;11070;51.336;12.340;2023-05-07T15:32:17;14.70;99.90
2062;DHT22;11070;51.336;12.340;2023-05-07T15:34:43;14.40;99.90
2062;DHT22;11070;51.336;12.340;2023-05-07T15:37:08;14.30;1.00
2062;DHT22;11070;51.336;12.340;2023-05-07T15:39:34;14.10;1.00
2062;DHT22;11070;51.336;12.340;2023-05-07T15:42:00;14.00;1.00
2062;DHT22;11070;51.336;12.340;2023-05-07T15:44:26;14.10;1.00
2062;DHT22;11070;51.336;12.340;2023-05-07T15:46:54;14.10;1.00
2062;DHT22;11070;51.336;12.340;2023-05-07T15:49:19;14.20;1.00